createdAt,value
2024-02-02T00:00:33.402Z,3.65
2024-02-02T00:02:59.862Z,3.64
2024-02-02T00:05:26.222Z,3.63
2024-02-02T00:07:52.558Z,3.64
2024-02-02T00:10:18.970Z,3.64
2024-02-02T00:12:45.411Z,3.62
2024-02-02T00:15:11.882Z,3.63
2024-02-02T00:17:38.267Z,3.65
2024-02-02T00:20:05.065Z,3.66
2024-02-02T00:22:31.483Z,3.69
2024-02-02T00:24:57.829Z,3.69
2024-02-02T00:27:24.242Z,3.66
2024-02-02T00:29:50.614Z,3.67
2024-02-02T00:32:17.038Z,3.67
2024-02-02T00:34:43.574Z,3.66
2024-02-02T00:37:10.135Z,3.66
2024-02-02T00:39:39.287Z,3.67
2024-02-02T00:42:05.732Z,3.67
2024-02-02T00:44:32.147Z,3.67
2024-02-02T00:46:58.512Z,3.63
2024-02-02T00:49:24.955Z,3.55
2024-02-02T00:51:51.655Z,3.49
2024-02-02T00:54:18.265Z,3.41
2024-02-02T00:56:44.660Z,3.33
2024-02-02T00:59:11.104Z,3.26
2024-02-02T01:01:38.056Z,3.19
2024-02-02T01:04:04.609Z,3.14
2024-02-02T01:06:31.134Z,3.06
2024-02-02T01:08:57.580Z,2.98
2024-02-02T01:11:24.190Z,2.89
2024-02-02T01:13:50.582Z,2.83
2024-02-02T01:16:16.987Z,2.74
2024-02-02T01:18:43.603Z,2.67
2024-02-02T01:21:10.131Z,2.59
2024-02-02T01:23:36.566Z,2.52
2024-02-02T01:26:02.942Z,2.47
2024-02-02T01:28:29.405Z,2.41
2024-02-02T01:30:55.735Z,2.39
2024-02-02T01:33:22.192Z,2.38
2024-02-02T01:35:48.782Z,2.37
2024-02-02T01:38:15.230Z,2.36
2024-02-02T01:40:41.612Z,2.36
2024-02-02T01:43:07.934Z,2.37
2024-02-02T01:45:34.401Z,2.36
2024-02-02T01:48:00.888Z,2.37
2024-02-02T01:50:27.330Z,2.36
2024-02-02T01:52:53.822Z,2.35
2024-02-02T01:55:20.407Z,2.34
2024-02-02T01:57:47.328Z,2.35
2024-02-02T02:00:14.158Z,2.37
2024-02-02T02:02:40.620Z,2.38
2024-02-02T02:05:07.623Z,2.39
2024-02-02T02:07:34.114Z,2.41
2024-02-02T02:10:00.637Z,2.46
2024-02-02T02:12:27.143Z,2.47
2024-02-02T02:14:53.734Z,2.51
2024-02-02T02:17:20.123Z,2.54
2024-02-02T02:19:50.213Z,2.57
2024-02-02T02:22:16.612Z,2.58
2024-02-02T02:24:42.996Z,2.60
2024-02-02T02:27:09.709Z,2.60
2024-02-02T02:29:36.172Z,2.60
2024-02-02T02:32:02.724Z,2.63
2024-02-02T02:34:29.299Z,2.62
2024-02-02T02:36:55.940Z,2.64
2024-02-02T02:39:22.736Z,2.66
2024-02-02T02:41:49.136Z,2.68
2024-02-02T02:44:15.579Z,2.69
2024-02-02T02:46:42.265Z,2.72
2024-02-02T02:49:08.803Z,2.75
2024-02-02T02:51:35.296Z,2.80
2024-02-02T02:54:01.724Z,2.85
2024-02-02T02:56:28.114Z,2.86
2024-02-02T02:58:54.513Z,2.91
2024-02-02T03:01:21.109Z,2.94
2024-02-02T03:03:47.511Z,2.97
2024-02-02T03:06:14.020Z,3.00
2024-02-02T03:08:40.498Z,3.05
2024-02-02T03:11:06.842Z,3.11
2024-02-02T03:13:33.177Z,3.17
2024-02-02T03:15:59.505Z,3.23
2024-02-02T03:18:25.989Z,3.23
2024-02-02T03:20:52.442Z,3.25
2024-02-02T03:23:18.905Z,3.26
2024-02-02T03:25:45.240Z,3.30
2024-02-02T03:28:11.662Z,3.35
2024-02-02T03:30:38.087Z,3.38
2024-02-02T03:33:04.770Z,3.44
2024-02-02T03:35:31.173Z,3.47
2024-02-02T03:37:57.540Z,3.48
2024-02-02T03:40:23.880Z,3.50
2024-02-02T03:42:50.208Z,3.54
2024-02-02T03:45:16.632Z,3.55
2024-02-02T03:47:43.041Z,3.56
2024-02-02T03:50:09.848Z,3.58
2024-02-02T03:52:36.213Z,3.58
2024-02-02T03:55:02.668Z,3.59
2024-02-02T03:57:29.246Z,3.60
2024-02-02T03:59:55.695Z,3.62
2024-02-02T04:02:22.152Z,3.62
2024-02-02T04:04:48.567Z,3.61
2024-02-02T04:07:14.942Z,3.63
2024-02-02T04:09:41.398Z,3.63
2024-02-02T04:12:07.900Z,3.64
2024-02-02T04:14:34.465Z,3.66
2024-02-02T04:17:00.833Z,3.64
2024-02-02T04:19:27.329Z,3.65
2024-02-02T04:21:53.689Z,3.66
2024-02-02T04:24:20.079Z,3.68
2024-02-02T04:26:46.468Z,3.68
2024-02-02T04:29:12.971Z,3.69
2024-02-02T04:31:39.346Z,3.67
2024-02-02T04:34:05.839Z,3.64
2024-02-02T04:36:32.361Z,3.61
2024-02-02T04:38:58.828Z,3.57
2024-02-02T04:41:26.084Z,3.54
2024-02-02T04:43:52.690Z,3.51
2024-02-02T04:46:19.083Z,3.50
2024-02-02T04:48:45.668Z,3.48
2024-02-02T04:51:12.256Z,3.49
2024-02-02T04:53:38.632Z,3.48
2024-02-02T04:56:05.207Z,3.45
2024-02-02T04:58:31.578Z,3.42
2024-02-02T05:00:57.964Z,3.42
2024-02-02T05:03:24.521Z,3.44
2024-02-02T05:05:50.858Z,3.46
2024-02-02T05:08:17.294Z,3.45
2024-02-02T05:10:43.690Z,3.48
2024-02-02T05:13:10.088Z,3.51
2024-02-02T05:15:36.537Z,3.53
2024-02-02T05:18:03.092Z,3.56
2024-02-02T05:20:29.564Z,3.58
2024-02-02T05:22:55.929Z,3.62
2024-02-02T05:25:22.339Z,3.65
2024-02-02T05:27:48.832Z,3.68
2024-02-02T05:30:15.571Z,3.72
2024-02-02T05:32:42.219Z,3.74
2024-02-02T05:35:08.920Z,3.77
2024-02-02T05:37:35.422Z,3.79
2024-02-02T05:40:01.905Z,3.80
2024-02-02T05:42:28.664Z,3.78
2024-02-02T05:44:55.183Z,3.72
2024-02-02T05:47:21.649Z,3.70
2024-02-02T05:49:48.120Z,3.73
2024-02-02T05:52:14.542Z,3.76
2024-02-02T05:54:40.998Z,3.77
2024-02-02T05:57:07.459Z,3.81
2024-02-02T05:59:33.891Z,3.85
2024-02-02T06:02:00.480Z,3.87
2024-02-02T06:04:26.907Z,3.91
2024-02-02T06:06:53.457Z,3.93
2024-02-02T06:09:19.918Z,3.95
2024-02-02T06:11:46.256Z,3.97
2024-02-02T06:14:12.741Z,3.96
2024-02-02T06:16:39.078Z,3.98
2024-02-02T06:19:05.524Z,3.97
2024-02-02T06:21:32.077Z,3.97
2024-02-02T06:23:58.762Z,4.00
2024-02-02T06:26:25.188Z,4.00
2024-02-02T06:28:51.519Z,3.99
2024-02-02T06:31:17.926Z,3.97
2024-02-02T06:33:44.352Z,3.98
2024-02-02T06:36:10.864Z,3.99
2024-02-02T06:38:37.347Z,4.00
2024-02-02T06:41:03.766Z,4.04
2024-02-02T06:43:30.157Z,4.05
2024-02-02T06:45:56.804Z,4.07
2024-02-02T06:48:23.390Z,4.12
2024-02-02T06:50:49.817Z,4.18
2024-02-02T06:53:16.217Z,4.20
2024-02-02T06:55:43.336Z,4.22
2024-02-02T06:58:38.820Z,4.22
2024-02-02T07:01:05.721Z,4.24
2024-02-02T07:03:33.140Z,4.29
2024-02-02T07:06:00.307Z,4.32
2024-02-02T07:08:27.174Z,4.35
2024-02-02T07:11:05.983Z,4.38
2024-02-02T07:13:46.149Z,4.43
2024-02-02T07:16:27.058Z,4.47
2024-02-02T07:18:53.779Z,4.52
2024-02-02T07:21:20.387Z,4.56
2024-02-02T07:23:49.257Z,4.60
2024-02-02T07:26:32.986Z,4.68
2024-02-02T07:29:04.394Z,4.76
2024-02-02T07:31:46.053Z,4.83
2024-02-02T07:34:40.002Z,4.92
2024-02-02T07:37:10.400Z,4.98
2024-02-02T07:39:37.012Z,5.08
2024-02-02T07:44:53.793Z,5.19
2024-02-02T07:47:20.125Z,5.23
2024-02-02T07:49:46.532Z,5.28
2024-02-02T07:52:12.884Z,5.35
2024-02-02T07:54:39.284Z,5.46
2024-02-02T07:57:05.681Z,5.51
2024-02-02T07:59:32.079Z,5.51
2024-02-02T08:12:45.724Z,5.65
2024-02-02T08:17:54.192Z,5.69
2024-02-02T08:23:01.721Z,5.71
2024-02-02T08:25:30.295Z,5.74
2024-02-02T08:27:57.274Z,5.79
2024-02-02T08:30:23.738Z,5.80
2024-02-02T08:44:27.917Z,6.00
2024-02-02T08:46:54.263Z,6.06
2024-02-02T08:49:41.784Z,6.14
2024-02-02T08:52:13.073Z,6.19
2024-02-02T08:54:46.711Z,6.16
2024-02-02T08:57:30.683Z,6.09
2024-02-02T08:59:58.355Z,6.07
2024-02-02T09:02:52.844Z,6.12
2024-02-02T09:05:21.259Z,6.23
2024-02-02T09:07:54.055Z,6.30
2024-02-02T09:10:40.334Z,6.42
2024-02-02T09:13:06.694Z,6.44
2024-02-02T09:15:35.927Z,6.44
2024-02-02T09:18:02.882Z,6.46
2024-02-02T09:25:46.435Z,6.50
2024-02-02T09:28:25.253Z,6.48
2024-02-02T09:30:58.317Z,6.62
2024-02-02T09:33:47.867Z,6.54
2024-02-02T09:36:15.155Z,6.53
2024-02-02T09:38:53.712Z,6.63
2024-02-02T09:42:05.870Z,6.66
2024-02-02T09:44:46.073Z,6.68
2024-02-02T09:47:37.452Z,6.65
2024-02-02T09:50:16.816Z,6.66
2024-02-02T09:53:25.041Z,6.75
2024-02-02T09:56:05.954Z,6.91
2024-02-02T09:59:11.018Z,7.02
2024-02-02T10:01:37.335Z,7.25
2024-02-02T10:04:22.564Z,7.29
2024-02-02T10:07:23.311Z,7.33
2024-02-02T10:10:07.180Z,7.38
2024-02-02T10:13:21.420Z,7.32
2024-02-02T10:15:50.739Z,7.24
2024-02-02T10:18:36.111Z,7.28
2024-02-02T10:21:24.120Z,7.20
2024-02-02T10:24:11.622Z,7.32
2024-02-02T10:27:18.119Z,7.30
2024-02-02T10:30:18.564Z,7.38
2024-02-02T10:33:16.004Z,7.44
2024-02-02T10:35:48.445Z,7.56
2024-02-02T10:38:33.767Z,7.70
2024-02-02T10:41:19.355Z,7.68
2024-02-02T10:43:51.625Z,7.77
2024-02-02T10:46:43.673Z,7.70
2024-02-02T10:49:44.874Z,7.73
2024-02-02T10:52:40.805Z,7.67
2024-02-02T10:55:22.224Z,7.73
2024-02-02T10:58:24.272Z,7.65
2024-02-02T11:06:41.755Z,7.63
2024-02-02T11:09:11.151Z,7.74
2024-02-02T11:11:44.797Z,7.82
2024-02-02T11:14:13.783Z,7.91
2024-02-02T11:16:58.902Z,8.01
2024-02-02T11:19:46.230Z,8.13
2024-02-02T11:22:19.501Z,8.02
2024-02-02T11:24:51.782Z,7.95
2024-02-02T11:27:30.998Z,8.06
2024-02-02T11:30:06.193Z,7.92
2024-02-02T11:33:07.594Z,7.88
2024-02-02T11:35:56.697Z,7.88
2024-02-02T11:38:41.565Z,7.80
2024-02-02T11:41:15.293Z,7.73
2024-02-02T11:43:43.265Z,7.86
2024-02-02T11:46:11.862Z,7.86
2024-02-02T11:48:43.223Z,7.88
2024-02-02T11:51:10.790Z,7.91
2024-02-02T11:54:02.267Z,7.87
2024-02-02T11:56:34.053Z,7.79
2024-02-02T11:59:09.300Z,7.81
2024-02-02T12:02:13.178Z,7.92
2024-02-02T12:04:48.496Z,7.90
2024-02-02T12:07:31.953Z,7.96
2024-02-02T12:10:02.830Z,7.98
2024-02-02T12:12:34.841Z,8.12
2024-02-02T12:15:01.359Z,8.04
2024-02-02T12:17:28.665Z,8.16
2024-02-02T12:19:55.364Z,8.23
2024-02-02T12:22:21.813Z,8.29
2024-02-02T12:24:48.235Z,8.45
2024-02-02T12:27:15.634Z,8.56
2024-02-02T12:29:42.169Z,8.67
2024-02-02T12:32:11.975Z,8.81
2024-02-02T12:34:38.755Z,8.78
2024-02-02T12:37:05.494Z,8.76
2024-02-02T12:39:32.111Z,8.76
2024-02-02T12:41:59.311Z,8.78
2024-02-02T12:44:25.788Z,8.89
2024-02-02T12:46:52.121Z,8.92
2024-02-02T12:49:18.667Z,8.99
2024-02-02T12:51:45.220Z,8.99
2024-02-02T12:54:12.283Z,9.05
2024-02-02T12:56:38.952Z,9.03
2024-02-02T12:59:06.683Z,9.12
2024-02-02T13:01:33.520Z,9.08
2024-02-02T13:03:59.988Z,9.19
2024-02-02T13:06:26.810Z,9.28
2024-02-02T13:08:53.297Z,9.41
2024-02-02T13:11:20.981Z,9.34
2024-02-02T13:13:47.339Z,9.30
2024-02-02T13:16:23.832Z,9.33
2024-02-02T13:18:50.277Z,9.50
2024-02-02T13:21:27.099Z,9.41
2024-02-02T13:23:57.779Z,9.50
2024-02-02T13:26:39.694Z,9.44
2024-02-02T13:29:06.366Z,9.47
2024-02-02T13:31:32.997Z,9.53
2024-02-02T13:34:00.294Z,9.55
2024-02-02T13:36:27.243Z,9.48
2024-02-02T13:39:00.764Z,9.40
2024-02-02T13:41:28.415Z,9.49
2024-02-02T13:44:01.859Z,9.44
2024-02-02T13:46:29.409Z,9.55
2024-02-02T13:48:55.924Z,9.61
2024-02-02T13:54:10.850Z,9.72
2024-02-02T13:56:37.295Z,9.73
2024-02-02T13:59:03.648Z,9.78
2024-02-02T14:01:30.006Z,9.74
2024-02-02T14:03:56.578Z,9.73
2024-02-02T14:06:23.403Z,9.70
2024-02-02T14:08:51.174Z,9.75
2024-02-02T14:11:25.230Z,9.81
2024-02-02T14:13:52.723Z,9.80
2024-02-02T14:16:19.670Z,9.77
2024-02-02T14:18:46.940Z,9.75
2024-02-02T14:21:14.029Z,9.76
2024-02-02T14:23:40.376Z,9.85
2024-02-02T14:26:09.921Z,9.87
2024-02-02T14:28:36.266Z,9.91
2024-02-02T14:31:02.667Z,10.06
2024-02-02T14:33:29.223Z,9.99
2024-02-02T14:35:55.621Z,9.85
2024-02-02T14:38:22.044Z,9.73
2024-02-02T14:40:48.371Z,9.74
2024-02-02T14:43:15.281Z,9.81
2024-02-02T14:45:41.721Z,9.81
2024-02-02T14:48:08.856Z,9.96
2024-02-02T14:50:35.285Z,9.90
2024-02-02T14:53:01.869Z,9.94
2024-02-02T14:55:29.175Z,9.93
2024-02-02T14:57:57.011Z,9.88
2024-02-02T15:00:23.848Z,9.79
2024-02-02T15:02:50.215Z,9.70
2024-02-02T15:05:16.838Z,9.74
2024-02-02T15:07:43.316Z,9.67
2024-02-02T15:10:11.153Z,9.57
2024-02-02T15:12:37.530Z,9.47
2024-02-02T15:15:04.270Z,9.44
2024-02-02T15:17:30.781Z,9.41
2024-02-02T15:19:57.194Z,9.40
2024-02-02T15:22:23.601Z,9.41
2024-02-02T15:24:49.974Z,9.43
2024-02-02T15:27:16.410Z,9.46
2024-02-02T15:29:43.192Z,9.51
2024-02-02T15:32:09.541Z,9.41
2024-02-02T15:34:36.055Z,9.53
2024-02-02T15:37:02.675Z,9.47
2024-02-02T15:39:37.280Z,9.49
2024-02-02T15:42:05.034Z,9.50
2024-02-02T15:44:31.399Z,9.41
2024-02-02T15:46:57.739Z,9.37
2024-02-02T15:49:24.239Z,9.35
2024-02-02T15:51:50.667Z,9.31
2024-02-02T15:54:17.222Z,9.23
2024-02-02T15:56:43.588Z,9.17
2024-02-02T15:59:11.023Z,9.14
2024-02-02T16:01:37.922Z,9.13
2024-02-02T16:04:04.468Z,9.18
2024-02-02T16:06:31.365Z,9.16
2024-02-02T16:08:57.701Z,9.06
2024-02-02T16:11:24.096Z,9.08
2024-02-02T16:13:50.435Z,9.05
2024-02-02T16:16:16.773Z,9.06
2024-02-02T16:18:43.315Z,9.04
2024-02-02T16:21:09.757Z,8.97
2024-02-02T16:23:36.128Z,8.95
2024-02-02T16:26:02.571Z,9.02
2024-02-02T16:28:29.151Z,8.98
2024-02-02T16:30:55.547Z,8.92
2024-02-02T16:33:22.201Z,8.88
2024-02-02T16:35:48.915Z,8.85
2024-02-02T16:38:16.485Z,8.84
2024-02-02T16:40:42.866Z,8.76
2024-02-02T16:43:09.400Z,8.80
2024-02-02T16:45:35.908Z,8.81
2024-02-02T16:48:02.301Z,8.78
2024-02-02T16:50:28.661Z,8.81
2024-02-02T16:52:55.019Z,8.85
2024-02-02T16:55:21.385Z,8.81
2024-02-02T16:57:47.965Z,8.76
2024-02-02T17:00:14.686Z,8.74
2024-02-02T17:02:41.023Z,8.74
2024-02-02T17:05:07.728Z,8.77
2024-02-02T17:07:34.187Z,8.76
2024-02-02T17:10:00.791Z,8.80
2024-02-02T17:12:27.189Z,8.79
2024-02-02T17:14:53.556Z,8.73
2024-02-02T17:17:19.966Z,8.74
2024-02-02T17:19:46.380Z,8.70
2024-02-02T17:22:12.809Z,8.68
2024-02-02T17:24:40.612Z,8.65
2024-02-02T17:27:07.012Z,8.59
2024-02-02T17:29:33.502Z,8.51
2024-02-02T17:31:59.852Z,8.41
2024-02-02T17:34:26.437Z,8.34
2024-02-02T17:36:52.950Z,8.27
2024-02-02T17:39:19.482Z,8.21
2024-02-02T17:41:45.841Z,8.18
2024-02-02T17:44:12.169Z,8.19
2024-02-02T17:46:38.544Z,8.13
2024-02-02T17:49:04.954Z,8.05
2024-02-02T17:51:31.906Z,8.00
2024-02-02T17:53:58.274Z,7.95
2024-02-02T17:56:24.652Z,7.87
2024-02-02T17:58:51.067Z,7.83
2024-02-02T18:01:17.435Z,7.86
2024-02-02T18:03:43.921Z,7.83
2024-02-02T18:06:10.328Z,7.78
2024-02-02T18:08:37.156Z,7.72
2024-02-02T18:11:03.638Z,7.67
2024-02-02T18:13:31.025Z,7.66
2024-02-02T18:15:57.468Z,7.63
2024-02-02T18:18:23.956Z,7.68
2024-02-02T18:20:50.387Z,7.63
2024-02-02T18:23:16.777Z,7.61
2024-02-02T18:25:43.158Z,7.59
2024-02-02T18:28:09.620Z,7.54
2024-02-02T18:30:36.119Z,7.56
2024-02-02T18:33:02.600Z,7.52
2024-02-02T18:35:29.048Z,7.52
2024-02-02T18:37:55.438Z,7.50
2024-02-02T18:40:21.782Z,7.44
2024-02-02T18:42:48.310Z,7.38
2024-02-02T18:45:14.860Z,7.37
2024-02-02T18:47:41.302Z,7.34
2024-02-02T18:50:08.147Z,7.32
2024-02-02T18:52:34.551Z,7.32
2024-02-02T18:55:00.902Z,7.32
2024-02-02T18:57:27.250Z,7.29
2024-02-02T18:59:53.639Z,7.24
2024-02-02T19:02:20.067Z,7.25
2024-02-02T19:04:46.498Z,7.26
2024-02-02T19:07:13.040Z,7.22
2024-02-02T19:09:39.565Z,7.20
2024-02-02T19:12:06.263Z,7.16
2024-02-02T19:14:32.683Z,7.13
2024-02-02T19:17:00.221Z,7.15
2024-02-02T19:19:26.683Z,7.08
2024-02-02T19:21:53.239Z,7.05
2024-02-02T19:24:19.720Z,7.04
2024-02-02T19:26:46.132Z,6.97
2024-02-02T19:29:12.627Z,6.95
2024-02-02T19:31:39.086Z,6.90
2024-02-02T19:34:06.411Z,6.89
2024-02-02T19:36:33.008Z,6.88
2024-02-02T19:39:00.513Z,6.85
2024-02-02T19:41:31.806Z,6.84
2024-02-02T19:46:36.408Z,6.85
2024-02-02T19:49:03.408Z,6.86
2024-02-02T19:51:30.291Z,6.85
2024-02-02T19:53:56.809Z,6.86
2024-02-02T19:56:23.573Z,6.83
2024-02-02T19:58:50.622Z,6.85
2024-02-02T20:01:21.388Z,6.88
2024-02-02T20:03:49.138Z,6.90
2024-02-02T20:06:16.621Z,6.94
2024-02-02T20:08:43.973Z,6.92
2024-02-02T20:11:18.639Z,7.02
2024-02-02T20:13:46.063Z,7.05
2024-02-02T20:16:17.311Z,7.03
2024-02-02T20:18:44.625Z,6.97
2024-02-02T20:21:15.459Z,6.98
2024-02-02T20:23:42.051Z,6.95
2024-02-02T20:26:08.445Z,7.01
2024-02-02T20:28:34.837Z,6.99
2024-02-02T20:33:43.335Z,6.94
2024-02-02T20:36:10.701Z,6.91
2024-02-02T20:38:37.656Z,6.92
2024-02-02T20:59:50.710Z,6.72
2024-02-02T21:02:17.107Z,6.68
2024-02-02T21:04:43.524Z,6.68
2024-02-02T21:07:10.292Z,6.68
2024-02-02T21:09:39.902Z,6.68
2024-02-02T21:20:14.848Z,6.54
2024-02-02T21:36:10.708Z,6.39
2024-02-02T21:38:37.085Z,6.43
2024-02-02T21:41:03.510Z,6.48
2024-02-02T21:43:29.855Z,6.58
2024-02-02T21:45:56.346Z,6.66
2024-02-02T21:48:23.172Z,6.72
2024-02-02T21:50:49.609Z,6.73
2024-02-02T21:53:16.002Z,6.80
2024-02-02T21:55:42.712Z,6.82
2024-02-02T21:58:09.077Z,6.90
2024-02-02T22:00:35.990Z,6.91
2024-02-02T22:03:03.540Z,6.85
2024-02-02T22:05:29.951Z,6.84
2024-02-02T22:07:56.411Z,6.92
2024-02-02T22:10:22.783Z,6.92
2024-02-02T22:12:49.192Z,6.94
2024-02-02T22:15:15.756Z,6.96
2024-02-02T22:17:42.182Z,6.92
2024-02-02T22:20:09.221Z,6.88
2024-02-02T22:22:35.603Z,6.90
2024-02-02T22:25:01.924Z,6.88
2024-02-02T22:27:31.351Z,6.90
2024-02-02T22:30:00.457Z,6.89
2024-02-02T22:32:26.885Z,6.90
2024-02-02T22:34:53.308Z,6.90
2024-02-02T22:37:19.713Z,6.90
2024-02-02T22:39:46.111Z,6.92
2024-02-02T22:42:12.611Z,6.98
2024-02-02T22:44:38.989Z,7.03
2024-02-02T22:47:05.609Z,7.05
2024-02-02T22:49:32.068Z,7.08
2024-02-02T22:51:58.677Z,7.08
2024-02-02T22:54:25.058Z,7.11
2024-02-02T22:56:51.441Z,7.14
2024-02-02T22:59:17.824Z,7.16
2024-02-02T23:01:44.196Z,7.21
2024-02-02T23:04:10.728Z,7.28
2024-02-02T23:06:37.320Z,7.29
2024-02-02T23:09:04.196Z,7.38
2024-02-02T23:11:30.567Z,7.41
2024-02-02T23:13:56.974Z,7.42
2024-02-02T23:16:23.570Z,7.46
2024-02-02T23:18:50.211Z,7.53
2024-02-02T23:21:16.797Z,7.50
2024-02-02T23:23:43.327Z,7.48
2024-02-02T23:26:13.074Z,7.51
2024-02-02T23:28:39.710Z,7.52
2024-02-02T23:31:06.245Z,7.50
2024-02-02T23:33:32.665Z,7.51
2024-02-02T23:35:59.180Z,7.53
2024-02-02T23:38:25.589Z,7.55
2024-02-02T23:40:51.922Z,7.60
2024-02-02T23:43:18.317Z,7.60
2024-02-02T23:45:44.772Z,7.59
2024-02-02T23:48:11.318Z,7.62
2024-02-02T23:50:37.784Z,7.60
2024-02-02T23:53:04.280Z,7.59
2024-02-02T23:55:30.696Z,7.55
2024-02-02T23:57:57.026Z,7.54
